Time;durP1;ratioP1;P1;durP2;ratioP2;P2;SDS_P1;SDS_P2;PMS_P1;PMS_P2;Temp;Humidity;BMP_temperature;BMP_pressure;BME280_temperature;BME280_humidity;BME280_pressure;Samples;Min_cycle;Max_cycle;Signal;HPM_P1;HPM_P2
2022/11/14 00:00:55;;;;;;;26.88;18.00;;;6.70;99.90;;;;;;4883807;29;20241;-72
2022/11/14 00:03:21;;;;;;;22.30;16.58;;;6.70;99.90;;;;;;4898595;29;20079;-71
2022/11/14 00:05:47;;;;;;;21.75;15.43;;;6.80;99.90;;;;;;4900676;29;20511;-72
2022/11/14 00:08:18;;;;;;;24.58;16.52;;;6.70;99.90;;;;;;4900634;29;20044;-72
2022/11/14 00:10:46;;;;;;;24.27;18.38;;;6.80;99.90;;;;;;4905279;29;20047;-71
2022/11/14 00:13:13;;;;;;;27.80;18.35;;;6.80;99.90;;;;;;4900976;29;20048;-71
2022/11/14 00:15:38;;;;;;;;;;;6.80;99.90;;;;;;4914197;29;20575;-71
2022/11/14 00:18:05;;;;;;;22.80;16.08;;;6.80;99.90;;;;;;4884920;29;20001;-71
2022/11/14 00:20:31;;;;;;;20.20;14.68;;;6.80;99.90;;;;;;4885272;29;20493;-71
2022/11/14 00:22:57;;;;;;;20.58;15.63;;;6.80;99.90;;;;;;4915914;29;20052;-71
2022/11/14 00:25:23;;;;;;;24.40;17.08;;;6.80;99.90;;;;;;4905200;29;20051;-72
2022/11/14 00:27:48;;;;;;;21.42;15.65;;;6.80;99.90;;;;;;4891648;29;20051;-72
2022/11/14 00:30:14;;;;;;;21.95;14.85;;;6.90;99.90;;;;;;4908293;29;20044;-72
2022/11/14 00:32:40;;;;;;;20.65;15.38;;;6.90;99.90;;;;;;4900221;29;20051;-72
2022/11/14 00:35:08;;;;;;;24.27;17.20;;;6.90;99.90;;;;;;4900278;29;20060;-72
2022/11/14 00:37:34;;;;;;;21.50;15.15;;;6.90;99.90;;;;;;4881703;29;20048;-71
2022/11/14 00:39:59;;;;;;;25.48;18.13;;;6.90;99.90;;;;;;4900186;29;20404;-72
2022/11/14 00:42:25;;;;;;;19.35;15.07;;;6.90;99.90;;;;;;4900347;29;20091;-71
2022/11/14 00:44:51;;;;;;;20.15;14.60;;;6.90;99.90;;;;;;4882651;29;20495;-72
2022/11/14 00:47:16;;;;;;;19.52;14.55;;;6.90;99.90;;;;;;4910159;29;20051;-72
2022/11/14 00:49:42;;;;;;;22.60;15.50;;;6.90;99.90;;;;;;4902166;29;20046;-72
2022/11/14 00:52:08;;;;;;;24.92;17.58;;;7.00;99.90;;;;;;4916492;29;20143;-71
2022/11/14 00:54:33;;;;;;;20.65;15.77;;;7.00;99.90;;;;;;4902292;29;20546;-71
2022/11/14 00:56:59;;;;;;;16.92;12.60;;;7.00;99.90;;;;;;4884590;29;20055;-72
2022/11/14 00:59:25;;;;;;;15.77;11.23;;;7.00;99.90;;;;;;4916733;29;20040;-71
2022/11/14 01:01:50;;;;;;;18.73;13.35;;;7.00;99.90;;;;;;4914003;29;20070;-71
2022/11/14 01:04:16;;;;;;;24.10;17.38;;;7.00;99.90;;;;;;4903263;29;20056;-71
2022/11/14 01:06:42;;;;;;;21.65;16.55;;;7.00;99.90;;;;;;4898251;29;20170;-72
2022/11/14 01:09:08;;;;;;;24.33;17.52;;;7.00;99.90;;;;;;4915265;29;20043;-72
2022/11/14 01:11:33;;;;;;;25.92;18.92;;;7.00;99.90;;;;;;4907026;29;20147;-71
2022/11/14 01:13:59;;;;;;;22.92;17.52;;;7.00;99.90;;;;;;4895663;29;20040;-72
2022/11/14 01:16:24;;;;;;;27.48;19.42;;;7.00;99.90;;;;;;4896442;29;20063;-72
2022/11/14 01:18:50;;;;;;;28.55;20.95;;;7.00;99.90;;;;;;4903556;29;20110;-71
2022/11/14 01:21:16;;;;;;;31.70;23.15;;;7.00;99.90;;;;;;4903833;29;20048;-71
2022/11/14 01:23:42;;;;;;;31.17;21.60;;;7.10;99.90;;;;;;4899554;29;20052;-71
2022/11/14 01:26:12;;;;;;;30.88;21.60;;;7.00;99.90;;;;;;4901986;29;20040;-71
2022/11/14 01:28:39;;;;;;;28.42;20.90;;;7.00;99.90;;;;;;4906583;29;20040;-72
2022/11/14 01:31:31;;;;;;;30.35;22.52;;;7.00;99.90;;;;;;4883543;29;20044;-71
2022/11/14 01:33:56;;;;;;;28.80;21.38;;;7.00;99.90;;;;;;4896448;29;20060;-72
2022/11/14 01:36:22;;;;;;;31.55;22.35;;;7.00;99.90;;;;;;4899410;29;20051;-72
2022/11/14 01:38:51;;;;;;;29.85;21.85;;;6.90;99.90;;;;;;4892478;29;20052;-72
2022/11/14 01:41:17;;;;;;;29.92;21.45;;;6.90;99.90;;;;;;4901362;29;20047;-72
2022/11/14 01:43:43;;;;;;;28.02;20.90;;;6.90;99.90;;;;;;4899130;29;20122;-72
2022/11/14 01:46:13;;;;;;;26.65;20.00;;;6.90;99.90;;;;;;4883409;29;20048;-71
2022/11/14 01:48:46;;;;;;;24.70;18.67;;;6.90;99.90;;;;;;4894499;29;20048;-72
2022/11/14 01:51:33;;;;;;;29.73;21.67;;;6.90;99.90;;;;;;4883815;29;20401;-71
2022/11/14 01:54:03;;;;;;;33.63;23.42;;;6.80;99.90;;;;;;4906528;29;20488;-71
2022/11/14 01:56:45;;;;;;;33.55;23.35;;;6.80;99.90;;;;;;4899089;29;20048;-71
2022/11/14 01:59:15;;;;;;;26.50;18.65;;;6.80;99.90;;;;;;4897740;29;20051;-71
2022/11/14 02:01:48;;;;;;;32.03;22.25;;;6.80;99.90;;;;;;4897603;29;20469;-71
2022/11/14 02:04:29;;;;;;;36.03;25.67;;;6.80;99.90;;;;;;4894977;29;20466;-70
2022/11/14 02:06:59;;;;;;;31.67;23.05;;;6.70;99.90;;;;;;4894690;29;20048;-71
2022/11/14 02:09:27;;;;;;;30.98;22.27;;;6.70;99.90;;;;;;4897877;29;20480;-71
2022/11/14 02:11:55;;;;;;;28.52;21.15;;;6.70;99.90;;;;;;4898136;29;20059;-71
2022/11/14 02:14:21;;;;;;;29.45;20.88;;;6.70;99.90;;;;;;4902163;29;20056;-71
2022/11/14 02:16:48;;;;;;;30.63;22.15;;;6.70;99.90;;;;;;4897730;29;20436;-71
2022/11/14 02:19:14;;;;;;;32.40;21.98;;;6.70;99.90;;;;;;4911713;29;20496;-71
2022/11/14 02:21:40;;;;;;;32.38;23.17;;;6.70;99.90;;;;;;4897800;29;20043;-71
2022/11/14 02:24:13;;;;;;;34.03;24.20;;;6.70;99.90;;;;;;4896229;29;20048;-71
2022/11/14 02:26:41;;;;;;;39.72;26.90;;;6.70;99.90;;;;;;4884946;29;20052;-71
2022/11/14 02:29:09;;;;;;;37.30;24.52;;;6.70;99.90;;;;;;4896672;29;20169;-69
2022/11/14 02:31:35;;;;;;;29.95;21.13;;;6.70;99.90;;;;;;4897230;29;20083;-70
2022/11/14 02:34:01;;;;;;;32.25;23.15;;;6.70;99.90;;;;;;4897162;29;20083;-70
2022/11/14 02:36:27;;;;;;;34.33;24.52;;;6.70;99.90;;;;;;4896652;29;20043;-70
2022/11/14 02:38:53;;;;;;;37.05;23.27;;;6.70;99.90;;;;;;4896386;29;20051;-71
2022/11/14 02:41:18;;;;;;;38.13;25.73;;;6.70;99.90;;;;;;4908470;29;20103;-71
2022/11/14 02:43:44;;;;;;;38.92;26.40;;;6.70;99.90;;;;;;4895665;29;20118;-71
2022/11/14 02:46:10;;;;;;;33.40;23.13;;;6.70;99.90;;;;;;4881951;29;20051;-71
2022/11/14 02:48:36;;;;;;;32.05;22.27;;;6.70;99.90;;;;;;4875799;29;20048;-71
2022/11/14 02:51:01;;;;;;;41.28;27.42;;;6.70;99.90;;;;;;4914469;29;20083;-71
2022/11/14 02:53:27;;;;;;;36.60;23.40;;;6.70;99.90;;;;;;4895980;29;20059;-71
2022/11/14 02:55:53;;;;;;;35.58;23.98;;;6.80;99.90;;;;;;4906649;29;20048;-71
2022/11/14 02:58:18;;;;;;;34.75;22.00;;;6.80;99.90;;;;;;4897921;29;20044;-71
2022/11/14 03:00:44;;;;;;;31.20;21.58;;;6.80;99.90;;;;;;4892829;29;20119;-71
2022/11/14 03:03:10;;;;;;;38.00;24.77;;;6.80;99.90;;;;;;4910480;29;20060;-71
2022/11/14 03:05:35;;;;;;;38.17;25.63;;;6.80;99.90;;;;;;4877703;29;20049;-71
2022/11/14 03:08:01;;;;;;;40.65;26.88;;;6.90;99.90;;;;;;4890551;29;20458;-71
2022/11/14 03:10:27;;;;;;;35.70;23.30;;;6.90;99.90;;;;;;4892269;29;20041;-71
2022/11/14 03:12:54;;;;;;;33.80;23.50;;;6.90;99.90;;;;;;4893655;29;20052;-71
2022/11/14 03:15:19;;;;;;;41.83;27.38;;;6.90;99.90;;;;;;4892968;29;20052;-71
2022/11/14 03:17:45;;;;;;;37.92;26.25;;;6.90;99.90;;;;;;4893521;29;20049;-71
2022/11/14 03:20:10;;;;;;;38.25;25.70;;;6.90;99.90;;;;;;4861656;29;20036;-71
2022/11/14 03:22:36;;;;;;;34.35;23.08;;;6.90;99.90;;;;;;4894414;29;20079;-71
2022/11/14 03:25:02;;;;;;;32.95;22.15;;;6.90;99.90;;;;;;4876558;29;20047;-71
2022/11/14 03:27:28;;;;;;;35.03;24.20;;;6.90;99.90;;;;;;4909025;29;20501;-71
2022/11/14 03:29:53;;;;;;;32.90;22.33;;;6.90;99.90;;;;;;4877149;29;20051;-71
2022/11/14 03:32:19;;;;;;;39.92;27.17;;;6.90;99.90;;;;;;4876281;29;20096;-71
2022/11/14 03:34:45;;;;;;;38.85;25.85;;;6.90;99.90;;;;;;4894550;29;20051;-72
2022/11/14 03:37:10;;;;;;;37.95;25.05;;;7.00;99.90;;;;;;4890909;29;20140;-72
2022/11/14 03:39:36;;;;;;;34.80;24.73;;;6.90;99.90;;;;;;4877013;29;20477;-72
2022/11/14 03:42:02;;;;;;;35.63;24.05;;;7.00;99.90;;;;;;4892783;29;20100;-72
2022/11/14 03:44:28;;;;;;;42.47;26.90;;;7.00;99.90;;;;;;4892107;29;20053;-72
2022/11/14 03:46:53;;;;;;;37.50;25.88;;;7.00;99.90;;;;;;4892523;29;20056;-71
2022/11/14 03:49:19;;;;;;;35.00;24.42;;;7.00;99.90;;;;;;4893438;29;20485;-71
2022/11/14 03:51:45;;;;;;;36.53;25.80;;;7.00;99.90;;;;;;4908085;29;20056;-71
2022/11/14 03:54:10;;;;;;;41.25;28.63;;;7.00;99.90;;;;;;4893060;29;20048;-72
2022/11/14 03:56:36;;;;;;;42.00;28.45;;;6.90;99.90;;;;;;4893231;29;20076;-72
2022/11/14 03:59:02;;;;;;;40.08;26.95;;;6.90;99.90;;;;;;4875738;29;20112;-72
2022/11/14 04:01:28;;;;;;;36.55;26.05;;;7.00;99.90;;;;;;4893656;29;20044;-72
2022/11/14 04:03:54;;;;;;;35.15;25.20;;;6.90;99.90;;;;;;4908409;29;20088;-72
2022/11/14 04:06:20;;;;;;;39.15;27.27;;;6.90;99.90;;;;;;4909249;29;20099;-73
2022/11/14 04:08:45;;;;;;;36.72;26.20;;;6.90;99.90;;;;;;4896385;29;20040;-71
2022/11/14 04:11:11;;;;;;;39.10;27.02;;;7.00;99.90;;;;;;4896369;29;20044;-71
2022/11/14 04:13:36;;;;;;;38.05;27.02;;;6.90;99.90;;;;;;4896679;29;20044;-72
2022/11/14 04:16:03;;;;;;;35.65;25.63;;;7.00;99.90;;;;;;4895453;29;20082;-72
2022/11/14 04:18:28;;;;;;;33.58;23.33;;;6.90;99.90;;;;;;4897982;29;20079;-71
2022/11/14 04:20:54;;;;;;;34.83;24.40;;;6.90;99.90;;;;;;4905566;29;20086;-72
2022/11/14 04:23:20;;;;;;;32.28;22.98;;;7.00;99.90;;;;;;4897364;29;20123;-72
2022/11/14 04:25:46;;;;;;;30.45;21.13;;;6.90;99.90;;;;;;4895593;29;20108;-72
2022/11/14 04:28:12;;;;;;;28.77;21.10;;;6.90;99.90;;;;;;4896783;29;20119;-72
2022/11/14 04:30:38;;;;;;;;;;;6.90;99.90;;;;;;4896372;29;20044;-72
2022/11/14 04:33:04;;;;;;;35.38;24.38;;;7.00;99.90;;;;;;4863432;29;20496;-71
2022/11/14 04:35:30;;;;;;;35.38;24.63;;;6.90;99.90;;;;;;4895675;29;20084;-71
2022/11/14 04:37:56;;;;;;;34.05;24.48;;;6.90;99.90;;;;;;4896967;29;20075;-72
2022/11/14 04:40:22;;;;;;;30.92;22.35;;;6.90;99.90;;;;;;4891920;29;20508;-72
2022/11/14 04:42:47;;;;;;;29.20;21.20;;;6.90;99.90;;;;;;4897804;29;20560;-72
2022/11/14 04:45:13;;;;;;;32.00;22.90;;;6.90;99.90;;;;;;4894165;29;20037;-72
2022/11/14 04:47:41;;;;;;;32.40;23.73;;;6.90;99.90;;;;;;4898900;29;20464;-73
2022/11/14 04:50:07;;;;;;;33.15;22.63;;;6.90;99.90;;;;;;4906455;29;20099;-73
2022/11/14 04:52:33;;;;;;;32.00;23.50;;;6.80;99.90;;;;;;4901321;29;20103;-72
2022/11/14 04:54:59;;;;;;;35.28;21.98;;;6.80;99.90;;;;;;4899911;29;20032;-73
2022/11/14 04:57:25;;;;;;;29.45;20.58;;;6.80;99.90;;;;;;4897877;29;20095;-76
2022/11/14 04:59:51;;;;;;;27.75;20.42;;;6.80;99.90;;;;;;4882518;29;20039;-76
2022/11/14 05:02:17;;;;;;;34.55;24.30;;;6.80;99.90;;;;;;4893659;29;20448;-76
2022/11/14 05:04:44;;;;;;;28.73;20.10;;;6.80;99.90;;;;;;4900343;29;20055;-75
2022/11/14 05:07:10;;;;;;;30.70;20.85;;;6.80;99.90;;;;;;4898225;29;20048;-77
2022/11/14 05:09:36;;;;;;;25.75;19.13;;;6.80;99.90;;;;;;4907685;29;20129;-77
2022/11/14 05:12:02;;;;;;;28.95;20.83;;;6.80;99.90;;;;;;4887170;29;20040;-77
2022/11/14 05:14:30;;;;;;;30.25;21.65;;;6.80;99.90;;;;;;4864513;29;20052;-77
2022/11/14 05:16:56;;;;;;;30.05;21.98;;;6.80;99.90;;;;;;4896651;29;20527;-75
2022/11/14 05:19:22;;;;;;;31.95;21.92;;;6.80;99.90;;;;;;4919586;29;20059;-76
2022/11/14 05:21:47;;;;;;;36.03;25.58;;;6.70;99.90;;;;;;4888149;29;20491;-76
2022/11/14 05:24:13;;;;;;;34.40;24.42;;;6.70;99.90;;;;;;4919041;29;20040;-77
2022/11/14 05:26:38;;;;;;;30.38;22.55;;;6.70;99.90;;;;;;4884625;29;20055;-76
2022/11/14 05:29:05;;;;;;;30.55;21.05;;;6.70;99.90;;;;;;4899088;29;20405;-76
2022/11/14 05:31:30;;;;;;;28.05;20.05;;;6.70;99.90;;;;;;4900881;29;20445;-76
2022/11/14 05:33:56;;;;;;;25.08;17.65;;;6.70;99.90;;;;;;4901488;29;20044;-76
2022/11/14 05:36:22;;;;;;;27.25;19.67;;;6.70;99.90;;;;;;4885432;29;20104;-76
2022/11/14 05:38:47;;;;;;;31.23;21.55;;;6.70;99.90;;;;;;4885001;29;20091;-76
2022/11/14 05:41:16;;;;;;;34.67;23.35;;;6.60;99.90;;;;;;4884740;29;20112;-76
2022/11/14 05:43:42;;;;;;;37.17;25.58;;;6.70;99.90;;;;;;4901095;29;20055;-76
2022/11/14 05:46:13;;;;;;;36.05;25.52;;;6.60;99.90;;;;;;4901765;29;20127;-77
2022/11/14 05:48:40;;;;;;;38.22;25.92;;;6.60;99.90;;;;;;4870318;29;20044;-77
2022/11/14 05:51:08;;;;;;;34.63;24.58;;;6.50;99.90;;;;;;4900855;29;20036;-76
2022/11/14 05:53:34;;;;;;;37.17;24.77;;;6.60;99.90;;;;;;4898910;29;20083;-76
2022/11/14 05:56:04;;;;;;;35.50;24.05;;;6.50;99.90;;;;;;4897231;29;20581;-76
2022/11/14 05:58:31;;;;;;;35.13;24.10;;;6.50;99.90;;;;;;4913584;29;20158;-76
2022/11/14 06:01:05;;;;;;;32.55;23.48;;;6.50;99.90;;;;;;4897970;29;20044;-76
2022/11/14 06:03:33;;;;;;;32.10;22.17;;;6.50;99.90;;;;;;4896446;29;20562;-77
2022/11/14 06:06:01;;;;;;;33.25;21.20;;;6.50;99.90;;;;;;4916516;29;20117;-76
2022/11/14 06:08:28;;;;;;;33.97;23.63;;;6.50;99.90;;;;;;4899060;29;21138;-78
2022/11/14 06:10:54;;;;;;;35.13;23.67;;;6.50;99.90;;;;;;4897667;29;20044;-76
2022/11/14 06:13:20;;;;;;;38.63;24.67;;;6.40;99.90;;;;;;4896559;29;20053;-76
2022/11/14 06:15:45;;;;;;;36.65;25.20;;;6.40;99.90;;;;;;4898100;29;20044;-76
2022/11/14 06:18:11;;;;;;;39.05;26.17;;;6.40;99.90;;;;;;4898466;29;20052;-74
2022/11/14 06:20:37;;;;;;;37.55;23.98;;;6.40;99.90;;;;;;4912331;29;20149;-76
2022/11/14 06:23:02;;;;;;;38.95;24.27;;;6.40;99.90;;;;;;4900104;29;20151;-75
2022/11/14 06:25:28;;;;;;;37.55;23.40;;;6.30;99.90;;;;;;4899487;29;20052;-75
2022/11/14 06:27:53;;;;;;;32.67;22.08;;;6.30;99.90;;;;;;4899063;29;20048;-75
2022/11/14 06:30:19;;;;;;;32.67;21.50;;;6.30;99.90;;;;;;4903632;29;20051;-74
2022/11/14 06:32:45;;;;;;;38.10;23.58;;;6.30;99.90;;;;;;4896362;29;20055;-75
2022/11/14 06:35:10;;;;;;;33.08;22.70;;;6.30;99.90;;;;;;4909209;29;20039;-75
2022/11/14 06:37:36;;;;;;;35.15;22.67;;;6.30;99.90;;;;;;4901514;29;20488;-75
2022/11/14 06:40:02;;;;;;;36.30;24.20;;;6.30;99.90;;;;;;4901494;29;20055;-75
2022/11/14 06:42:28;;;;;;;35.30;24.10;;;6.30;99.90;;;;;;4898930;29;20131;-75
2022/11/14 06:44:53;;;;;;;38.22;24.75;;;6.30;99.90;;;;;;4898418;29;20055;-75
2022/11/14 06:47:19;;;;;;;34.42;22.42;;;6.30;99.90;;;;;;4894031;29;20043;-75
2022/11/14 06:49:44;;;;;;;30.90;20.60;;;6.30;99.90;;;;;;4897845;29;20043;-77
2022/11/14 06:52:10;;;;;;;33.80;21.35;;;6.30;99.90;;;;;;4882057;29;20992;-78
2022/11/14 06:54:36;;;;;;;36.67;24.00;;;6.30;99.90;;;;;;4899642;29;20044;-76
2022/11/14 06:57:01;;;;;;;33.65;21.92;;;6.30;99.90;;;;;;4902133;29;20623;-77
2022/11/14 06:59:27;;;;;;;34.38;22.35;;;6.30;99.90;;;;;;4878173;29;20204;-73
2022/11/14 07:01:53;;;;;;;38.70;24.10;;;6.30;99.90;;;;;;4908522;29;20052;-74
2022/11/14 07:04:18;;;;;;;40.00;25.38;;;6.30;99.90;;;;;;4904791;29;20439;-75
2022/11/14 07:06:44;;;;;;;42.63;26.40;;;6.20;99.90;;;;;;4906817;29;20507;-75
2022/11/14 07:09:10;;;;;;;40.53;24.85;;;6.20;99.90;;;;;;4871464;29;20040;-75
2022/11/14 07:11:36;;;;;;;34.15;23.05;;;6.10;99.90;;;;;;4908290;29;20044;-75
2022/11/14 07:14:02;;;;;;;34.00;21.13;;;6.10;99.90;;;;;;4872535;29;20386;-75
2022/11/14 07:16:36;;;;;;;36.92;23.23;;;6.10;99.90;;;;;;4880739;29;20111;-76
2022/11/14 07:19:03;;;;;;;40.95;25.40;;;6.10;99.90;;;;;;4875096;29;20051;-70
2022/11/14 07:21:30;;;;;;;33.33;21.10;;;6.10;99.90;;;;;;4872309;29;20055;-72
2022/11/14 07:23:57;;;;;;;36.08;22.63;;;6.10;99.90;;;;;;4878762;29;20041;-73
2022/11/14 07:26:23;;;;;;;35.85;22.38;;;6.10;99.90;;;;;;4885075;29;20110;-71
2022/11/14 07:28:49;;;;;;;36.75;22.73;;;6.10;99.90;;;;;;4882343;29;20552;-71
2022/11/14 07:31:16;;;;;;;35.75;23.17;;;6.00;99.90;;;;;;4914506;29;20131;-72
2022/11/14 07:33:43;;;;;;;43.05;25.35;;;6.00;99.90;;;;;;4897726;29;20537;-73
2022/11/14 07:36:10;;;;;;;37.38;23.75;;;5.90;99.90;;;;;;4881276;29;20071;-71
2022/11/14 07:38:37;;;;;;;40.20;23.00;;;5.90;99.90;;;;;;4893959;29;20055;-72
2022/11/14 07:41:08;;;;;;;40.47;23.98;;;5.90;99.90;;;;;;4851453;29;20056;-71
2022/11/14 07:43:34;;;;;;;38.05;22.92;;;5.90;99.90;;;;;;4877924;29;20044;-71
2022/11/14 07:46:03;;;;;;;37.47;22.38;;;5.90;99.90;;;;;;4879117;29;20100;-71
2022/11/14 07:48:29;;;;;;;34.00;21.27;;;5.90;99.90;;;;;;4877542;29;20515;-71
2022/11/14 07:51:04;;;;;;;30.65;19.17;;;6.00;99.90;;;;;;4861329;29;20052;-71
2022/11/14 07:53:30;;;;;;;29.92;18.25;;;6.00;99.90;;;;;;4878894;29;20048;-71
2022/11/14 07:55:56;;;;;;;27.00;16.58;;;6.00;99.90;;;;;;4878912;29;20055;-70
2022/11/14 07:58:22;;;;;;;29.65;18.10;;;6.00;99.90;;;;;;4881640;29;20538;-70
2022/11/14 08:00:48;;;;;;;24.17;15.60;;;6.10;99.90;;;;;;4897990;29;20119;-71
2022/11/14 08:03:14;;;;;;;31.08;19.17;;;6.10;99.90;;;;;;4897216;29;20143;-71
2022/11/14 08:05:39;;;;;;;28.25;18.33;;;6.10;99.90;;;;;;4896996;29;20051;-71
2022/11/14 08:08:05;;;;;;;32.10;19.75;;;6.10;99.90;;;;;;4880721;29;20052;-70
2022/11/14 08:10:31;;;;;;;32.63;20.75;;;6.10;99.90;;;;;;4880619;29;20068;-70
2022/11/14 08:13:02;;;;;;;31.23;19.48;;;6.10;99.90;;;;;;4897770;29;20048;-70
2022/11/14 08:15:28;;;;;;;32.15;19.52;;;6.10;99.90;;;;;;4897634;29;20044;-71
2022/11/14 08:17:58;;;;;;;30.38;19.73;;;6.20;99.90;;;;;;4901378;29;20048;-70
2022/11/14 08:20:25;;;;;;;32.00;20.02;;;6.20;99.90;;;;;;4901137;29;20052;-71
2022/11/14 08:23:02;;;;;;;39.22;23.90;;;6.20;99.90;;;;;;4901003;29;20051;-71
2022/11/14 08:25:28;;;;;;;34.90;21.80;;;6.20;99.90;;;;;;4900914;29;20373;-71
2022/11/14 08:27:53;;;;;;;32.72;20.73;;;6.20;99.90;;;;;;4900610;29;20051;-70
2022/11/14 08:30:19;;;;;;;33.72;21.38;;;6.20;99.90;;;;;;4900820;29;20051;-70
2022/11/14 08:32:45;;;;;;;34.95;21.75;;;6.30;99.90;;;;;;4885226;29;20051;-70
2022/11/14 08:35:10;;;;;;;36.13;22.35;;;6.30;99.90;;;;;;4901099;29;20056;-71
2022/11/14 08:37:36;;;;;;;36.60;23.40;;;6.30;99.90;;;;;;4900917;29;20480;-70
2022/11/14 08:40:02;;;;;;;32.20;19.80;;;6.30;99.90;;;;;;4901223;29;20071;-71
2022/11/14 08:42:28;;;;;;;33.97;21.40;;;6.30;99.90;;;;;;4885347;29;20079;-71
2022/11/14 08:44:54;;;;;;;35.75;21.90;;;6.30;99.90;;;;;;4917507;29;20040;-70
2022/11/14 08:47:19;;;;;;;30.60;18.27;;;6.30;99.90;;;;;;4900508;29;20548;-70
2022/11/14 08:49:45;;;;;;;29.50;18.20;;;6.40;99.90;;;;;;4915757;29;20146;-71
2022/11/14 08:52:11;;;;;;;31.50;19.80;;;6.40;99.90;;;;;;4884841;29;20044;-70
2022/11/14 08:54:36;;;;;;;37.58;23.50;;;6.40;99.90;;;;;;4884608;29;20518;-70
2022/11/14 08:57:03;;;;;;;32.22;20.90;;;6.30;99.90;;;;;;4900403;29;20071;-70
2022/11/14 08:59:30;;;;;;;31.00;19.85;;;6.40;99.90;;;;;;4899862;29;20079;-70
2022/11/14 09:01:56;;;;;;;37.70;23.55;;;6.40;99.90;;;;;;4900150;29;20070;-71
2022/11/14 09:04:21;;;;;;;35.67;22.55;;;6.40;99.90;;;;;;4899912;29;20563;-70
2022/11/14 09:06:47;;;;;;;28.63;18.77;;;6.40;99.90;;;;;;4900266;29;20036;-70
2022/11/14 09:09:13;;;;;;;27.38;18.98;;;6.40;99.90;;;;;;4900218;29;20075;-71
2022/11/14 09:11:39;;;;;;;30.45;19.33;;;6.40;99.90;;;;;;4900185;29;20044;-71
2022/11/14 09:14:05;;;;;;;29.40;19.13;;;6.50;99.90;;;;;;4900161;29;20044;-71
2022/11/14 09:16:32;;;;;;;31.73;20.23;;;6.50;99.90;;;;;;4899915;29;20527;-70
2022/11/14 09:18:58;;;;;;;30.20;19.02;;;6.60;99.90;;;;;;4884763;29;20051;-70
2022/11/14 09:21:24;;;;;;;28.75;19.38;;;6.60;99.90;;;;;;4899874;29;20474;-71
2022/11/14 09:23:50;;;;;;;36.08;21.90;;;6.60;99.90;;;;;;4900196;29;20062;-70
2022/11/14 09:26:17;;;;;;;36.60;22.85;;;6.70;99.90;;;;;;4900545;29;20576;-70
2022/11/14 09:28:43;;;;;;;33.75;21.63;;;6.70;99.90;;;;;;4900077;29;20051;-76
2022/11/14 09:31:10;;;;;;;34.67;22.85;;;6.70;99.90;;;;;;4886393;29;20048;-77
2022/11/14 09:33:36;;;;;;;31.98;20.35;;;6.80;99.90;;;;;;4901076;29;20054;-77
2022/11/14 09:36:05;;;;;;;28.95;19.40;;;6.80;99.90;;;;;;4901495;29;20044;-77
2022/11/14 09:38:32;;;;;;;30.15;18.88;;;6.90;99.90;;;;;;4918135;29;20402;-77
2022/11/14 09:41:07;;;;;;;33.78;21.25;;;6.90;99.90;;;;;;4901300;29;20048;-77
2022/11/14 09:43:58;;;;;;;36.75;23.83;;;6.90;99.90;;;;;;4900223;29;20055;-70
2022/11/14 09:46:26;;;;;;;32.67;21.20;;;6.90;99.90;;;;;;4899617;29;20090;-70
2022/11/14 09:48:52;;;;;;;38.47;24.67;;;7.00;99.90;;;;;;4899399;29;20043;-70
2022/11/14 09:51:30;;;;;;;33.53;22.58;;;7.00;99.90;;;;;;4899870;29;20048;-71
2022/11/14 09:54:07;;;;;;;30.13;20.42;;;7.00;99.90;;;;;;4884131;29;20044;-70
2022/11/14 09:56:33;;;;;;;32.08;20.48;;;7.00;99.90;;;;;;4899445;29;20491;-71
2022/11/14 09:58:59;;;;;;;28.83;19.33;;;6.90;99.90;;;;;;4898987;29;20052;-71
2022/11/14 10:01:44;;;;;;;33.85;22.38;;;6.90;99.90;;;;;;4899315;29;20052;-71
2022/11/14 10:04:35;;;;;;;34.63;23.35;;;6.90;99.90;;;;;;4895509;29;20515;-71
2022/11/14 10:07:36;;;;;;;29.80;19.90;;;6.80;99.90;;;;;;4896293;29;20059;-71
2022/11/14 10:10:17;;;;;;;31.75;22.02;;;6.90;99.90;;;;;;4880488;29;20037;-70
2022/11/14 10:13:12;;;;;;;31.83;21.20;;;6.90;99.90;;;;;;4895958;29;20049;-70
2022/11/14 10:16:07;;;;;;;34.55;22.00;;;6.90;99.90;;;;;;4880622;29;20122;-71
2022/11/14 10:19:08;;;;;;;34.25;21.95;;;7.10;99.90;;;;;;4851943;29;20148;-71
2022/11/14 10:21:39;;;;;;;32.58;21.00;;;7.10;99.90;;;;;;4895641;29;20509;-70
2022/11/14 10:24:19;;;;;;;34.53;22.77;;;7.10;99.90;;;;;;4895396;29;20369;-70
2022/11/14 10:27:01;;;;;;;35.30;23.23;;;7.10;99.90;;;;;;4888735;29;20045;-70
2022/11/14 10:29:46;;;;;;;26.98;19.15;;;7.10;99.90;;;;;;4878201;29;20383;-70
2022/11/14 10:32:43;;;;;;;27.58;18.02;;;7.30;99.90;;;;;;4861151;29;20053;-71
2022/11/14 10:35:17;;;;;;;28.80;18.83;;;7.40;99.90;;;;;;4860620;29;20112;-71
2022/11/14 10:37:50;;;;;;;29.00;20.08;;;7.40;99.90;;;;;;4877858;29;20052;-76
2022/11/14 10:40:23;;;;;;;26.13;18.05;;;7.40;99.90;;;;;;4861672;29;20088;-77
2022/11/14 10:43:02;;;;;;;28.48;19.70;;;7.50;99.90;;;;;;4877294;29;20049;-76
2022/11/14 10:45:37;;;;;;;29.60;20.42;;;7.50;99.90;;;;;;4877210;29;20041;-76
2022/11/14 10:48:12;;;;;;;32.33;21.75;;;7.70;99.90;;;;;;4878518;29;20049;-78
2022/11/14 10:50:47;;;;;;;31.85;21.73;;;8.00;99.90;;;;;;4876712;29;20128;-77
2022/11/14 10:53:36;;;;;;;31.40;22.00;;;8.10;99.90;;;;;;4877477;29;20059;-76
2022/11/14 10:56:03;;;;;;;30.95;20.40;;;8.50;99.90;;;;;;4876565;29;20056;-77
2022/11/14 10:58:28;;;;;;;;;;;8.40;99.90;;;;;;4877194;29;20181;-76
2022/11/14 11:00:54;;;;;;;30.50;20.70;;;8.30;99.90;;;;;;4876656;29;20002;-77
2022/11/14 11:03:38;;;;;;;31.20;21.17;;;8.10;99.90;;;;;;4876813;29;20099;-77
2022/11/14 11:06:04;;;;;;;32.30;22.05;;;7.90;99.90;;;;;;4877568;29;20056;-77
2022/11/14 11:11:30;;;;;;;30.27;20.98;;;7.60;99.90;;;;;;4877564;29;20052;-77
2022/11/14 11:13:59;;;;;;;28.88;20.63;;;7.70;99.90;;;;;;4877599;29;20045;-77
2022/11/14 11:16:26;;;;;;;28.95;20.38;;;7.70;99.90;;;;;;4880943;29;20040;-76
2022/11/14 11:18:52;;;;;;;29.30;20.13;;;7.70;99.90;;;;;;4880955;29;20072;-76
2022/11/14 11:21:21;;;;;;;31.13;21.48;;;7.70;99.90;;;;;;4881287;29;20053;-77
2022/11/14 11:23:55;;;;;;;31.02;21.15;;;7.60;99.90;;;;;;4896350;29;20059;-77
2022/11/14 11:26:31;;;;;;;27.08;19.27;;;7.60;99.90;;;;;;4896387;29;20051;-76
2022/11/14 11:29:23;;;;;;;32.33;22.33;;;7.70;99.90;;;;;;4896265;29;20105;-77
2022/11/14 11:31:54;;;;;;;30.55;20.88;;;7.80;99.90;;;;;;4892538;29;20576;-76
2022/11/14 11:34:26;;;;;;;29.20;21.25;;;7.80;99.90;;;;;;4895565;29;20084;-77
2022/11/14 11:37:19;;;;;;;27.67;19.50;;;7.80;99.90;;;;;;4880146;29;20120;-77
2022/11/14 11:39:48;;;;;;;28.65;19.15;;;7.90;99.90;;;;;;4911381;29;20056;-77
2022/11/14 11:42:21;;;;;;;27.52;19.25;;;7.90;99.90;;;;;;4895502;29;20087;-77
2022/11/14 11:44:52;;;;;;;28.67;20.67;;;8.10;99.90;;;;;;4895591;29;20524;-77
2022/11/14 11:47:20;;;;;;;32.13;22.33;;;8.20;99.90;;;;;;4895835;29;20112;-77
2022/11/14 11:49:50;;;;;;;36.65;24.52;;;8.30;99.90;;;;;;4896088;29;20520;-78
2022/11/14 11:52:38;;;;;;;31.50;21.38;;;8.30;99.90;;;;;;4901586;29;20045;-77
2022/11/14 11:55:16;;;;;;;31.30;21.65;;;8.40;99.90;;;;;;4902118;29;20063;-77
2022/11/14 11:58:11;;;;;;;34.53;22.38;;;8.40;99.90;;;;;;4901978;29;20097;-77
2022/11/14 12:00:38;;;;;;;32.25;23.33;;;8.40;99.90;;;;;;4886239;29;20101;-76
2022/11/14 12:03:11;;;;;;;29.10;20.05;;;8.40;99.90;;;;;;4901570;29;20060;-76
2022/11/14 12:05:55;;;;;;;31.25;22.25;;;8.40;99.90;;;;;;4902125;29;20086;-77
2022/11/14 12:08:25;;;;;;;29.15;21.13;;;8.60;99.90;;;;;;4883760;29;20045;-78
2022/11/14 12:10:52;;;;;;;28.70;20.05;;;8.90;99.90;;;;;;4882834;29;20048;-78
2022/11/14 12:13:29;;;;;;;25.38;17.80;;;9.10;99.90;;;;;;4883184;29;20132;-77
2022/11/14 12:16:04;;;;;;;22.25;16.75;;;9.40;99.90;;;;;;4882946;29;20057;-77
2022/11/14 12:18:39;;;;;;;27.45;18.52;;;9.50;99.90;;;;;;4883626;29;20148;-77
2022/11/14 12:21:58;;;;;;;27.58;20.20;;;9.70;99.90;;;;;;4866914;29;20049;-77
2022/11/14 12:24:32;;;;;;;26.25;19.63;;;9.50;99.90;;;;;;4829777;29;20050;-77
2022/11/14 12:27:36;;;;;;;25.15;18.55;;;9.50;99.90;;;;;;4829392;29;20140;-77
2022/11/14 12:30:20;;;;;;;25.45;18.48;;;9.50;99.90;;;;;;4886414;29;20080;-77
2022/11/14 12:32:52;;;;;;;27.50;20.30;;;9.50;99.90;;;;;;4882925;29;20096;-77
2022/11/14 12:35:25;;;;;;;25.38;18.30;;;9.70;99.90;;;;;;4882782;29;20064;-77
2022/11/14 12:37:53;;;;;;;23.80;18.00;;;9.80;99.90;;;;;;4898074;29;20045;-77
2022/11/14 12:40:36;;;;;;;26.60;18.15;;;9.90;99.90;;;;;;4882715;29;20085;-77
2022/11/14 12:43:02;;;;;;;24.23;16.88;;;10.00;99.90;;;;;;4882585;29;20152;-77
2022/11/14 12:45:56;;;;;;;26.05;19.10;;;9.90;99.90;;;;;;4881822;29;20074;-76
2022/11/14 12:48:25;;;;;;;25.10;17.75;;;9.90;99.90;;;;;;4866321;29;20520;-77
2022/11/14 12:50:52;;;;;;;24.23;17.85;;;9.90;99.90;;;;;;4881929;29;20136;-77